sensor_id;sensor_type;location;lat;lon;timestamp;temperature;humidity
42227;DHT22;27892;52.378;13.122;2023-12-20T00:01:19;10.80;80.50
42227;DHT22;27892;52.378;13.122;2023-12-20T00:03:45;10.70;80.20
42227;DHT22;27892;52.378;13.122;2023-12-20T00:06:11;10.80;80.70
42227;DHT22;27892;52.378;13.122;2023-12-20T00:08:37;10.80;80.60
42227;DHT22;27892;52.378;13.122;2023-12-20T00:11:03;10.80;80.40
42227;DHT22;27892;52.378;13.122;2023-12-20T00:13:28;10.80;80.50
42227;DHT22;27892;52.378;13.122;2023-12-20T00:15:54;10.80;80.50
42227;DHT22;27892;52.378;13.122;2023-12-20T00:18:20;10.80;80.20
42227;DHT22;27892;52.378;13.122;2023-12-20T00:20:45;10.80;80.00
42227;DHT22;27892;52.378;13.122;2023-12-20T00:23:11;10.80;79.90
42227;DHT22;27892;52.378;13.122;2023-12-20T00:25:37;10.80;79.90
42227;DHT22;27892;52.378;13.122;2023-12-20T00:28:03;10.80;80.30
42227;DHT22;27892;52.378;13.122;2023-12-20T00:30:28;10.80;80.00
42227;DHT22;27892;52.378;13.122;2023-12-20T00:32:55;10.80;79.90
42227;DHT22;27892;52.378;13.122;2023-12-20T00:35:21;10.80;80.50
42227;DHT22;27892;52.378;13.122;2023-12-20T00:37:47;10.80;79.70
42227;DHT22;27892;52.378;13.122;2023-12-20T00:40:13;10.80;79.90
42227;DHT22;27892;52.378;13.122;2023-12-20T00:42:38;10.80;80.00
42227;DHT22;27892;52.378;13.122;2023-12-20T00:45:05;10.80;80.00
42227;DHT22;27892;52.378;13.122;2023-12-20T00:47:31;10.80;79.90
42227;DHT22;27892;52.378;13.122;2023-12-20T00:49:57;10.80;80.00
42227;DHT22;27892;52.378;13.122;2023-12-20T00:52:23;10.80;80.50
42227;DHT22;27892;52.378;13.122;2023-12-20T00:54:49;10.80;79.80
42227;DHT22;27892;52.378;13.122;2023-12-20T00:57:15;10.80;80.00
42227;DHT22;27892;52.378;13.122;2023-12-20T00:59:41;10.80;80.00
42227;DHT22;27892;52.378;13.122;2023-12-20T01:02:06;10.80;80.20
42227;DHT22;27892;52.378;13.122;2023-12-20T01:04:32;10.90;79.90
42227;DHT22;27892;52.378;13.122;2023-12-20T01:06:58;10.90;79.70
42227;DHT22;27892;52.378;13.122;2023-12-20T01:09:24;10.80;79.80
42227;DHT22;27892;52.378;13.122;2023-12-20T01:11:52;10.80;79.70
42227;DHT22;27892;52.378;13.122;2023-12-20T01:14:18;10.80;79.60
42227;DHT22;27892;52.378;13.122;2023-12-20T01:16:44;10.80;79.90
42227;DHT22;27892;52.378;13.122;2023-12-20T01:19:09;10.80;80.40
42227;DHT22;27892;52.378;13.122;2023-12-20T01:21:35;10.80;80.20
42227;DHT22;27892;52.378;13.122;2023-12-20T01:24:01;10.70;79.50
42227;DHT22;27892;52.378;13.122;2023-12-20T01:26:26;10.70;80.20
42227;DHT22;27892;52.378;13.122;2023-12-20T01:28:53;10.70;80.70
42227;DHT22;27892;52.378;13.122;2023-12-20T01:31:19;10.70;81.20
42227;DHT22;27892;52.378;13.122;2023-12-20T01:33:44;10.70;80.40
42227;DHT22;27892;52.378;13.122;2023-12-20T01:36:10;10.80;80.70
42227;DHT22;27892;52.378;13.122;2023-12-20T01:38:36;10.80;80.60
42227;DHT22;27892;52.378;13.122;2023-12-20T01:41:02;10.80;80.20
42227;DHT22;27892;52.378;13.122;2023-12-20T01:43:29;10.70;80.40
42227;DHT22;27892;52.378;13.122;2023-12-20T01:45:56;10.80;80.80
42227;DHT22;27892;52.378;13.122;2023-12-20T01:48:22;10.80;80.60
42227;DHT22;27892;52.378;13.122;2023-12-20T01:50:49;10.80;80.90
42227;DHT22;27892;52.378;13.122;2023-12-20T01:53:15;10.80;80.80
42227;DHT22;27892;52.378;13.122;2023-12-20T01:55:41;10.90;80.70
42227;DHT22;27892;52.378;13.122;2023-12-20T01:58:09;10.80;80.60
42227;DHT22;27892;52.378;13.122;2023-12-20T02:00:36;10.90;80.30
42227;DHT22;27892;52.378;13.122;2023-12-20T02:03:03;10.80;80.40
42227;DHT22;27892;52.378;13.122;2023-12-20T02:05:34;10.80;80.50
42227;DHT22;27892;52.378;13.122;2023-12-20T02:08:00;10.80;81.00
42227;DHT22;27892;52.378;13.122;2023-12-20T02:10:26;10.90;80.20
42227;DHT22;27892;52.378;13.122;2023-12-20T02:12:52;10.80;80.60
42227;DHT22;27892;52.378;13.122;2023-12-20T02:15:18;10.90;80.50
42227;DHT22;27892;52.378;13.122;2023-12-20T02:17:45;10.80;80.50
42227;DHT22;27892;52.378;13.122;2023-12-20T02:20:10;10.80;80.10
42227;DHT22;27892;52.378;13.122;2023-12-20T02:22:36;10.80;80.80
42227;DHT22;27892;52.378;13.122;2023-12-20T02:25:02;10.90;80.70
42227;DHT22;27892;52.378;13.122;2023-12-20T02:27:29;10.90;80.60
42227;DHT22;27892;52.378;13.122;2023-12-20T02:29:55;11.00;80.30
42227;DHT22;27892;52.378;13.122;2023-12-20T02:32:21;10.90;80.40
42227;DHT22;27892;52.378;13.122;2023-12-20T02:34:49;10.90;80.50
42227;DHT22;27892;52.378;13.122;2023-12-20T02:37:15;10.90;80.20
42227;DHT22;27892;52.378;13.122;2023-12-20T02:39:41;10.90;80.20
42227;DHT22;27892;52.378;13.122;2023-12-20T02:42:07;10.90;80.30
42227;DHT22;27892;52.378;13.122;2023-12-20T02:44:32;11.00;80.30
42227;DHT22;27892;52.378;13.122;2023-12-20T02:46:58;11.00;80.10
42227;DHT22;27892;52.378;13.122;2023-12-20T02:49:24;11.00;79.70
42227;DHT22;27892;52.378;13.122;2023-12-20T02:51:49;11.00;79.50
42227;DHT22;27892;52.378;13.122;2023-12-20T02:54:15;10.90;79.90
42227;DHT22;27892;52.378;13.122;2023-12-20T02:56:41;11.00;80.00
42227;DHT22;27892;52.378;13.122;2023-12-20T02:59:06;11.10;79.70
42227;DHT22;27892;52.378;13.122;2023-12-20T03:01:34;11.10;79.70
42227;DHT22;27892;52.378;13.122;2023-12-20T03:04:00;11.10;79.50
42227;DHT22;27892;52.378;13.122;2023-12-20T03:06:26;11.00;79.20
42227;DHT22;27892;52.378;13.122;2023-12-20T03:08:52;11.00;79.90
42227;DHT22;27892;52.378;13.122;2023-12-20T03:11:17;11.00;79.20
42227;DHT22;27892;52.378;13.122;2023-12-20T03:13:43;10.90;79.30
42227;DHT22;27892;52.378;13.122;2023-12-20T03:16:10;10.90;79.60
42227;DHT22;27892;52.378;13.122;2023-12-20T03:18:36;11.00;79.50
42227;DHT22;27892;52.378;13.122;2023-12-20T03:21:02;10.90;79.70
42227;DHT22;27892;52.378;13.122;2023-12-20T03:23:29;10.90;79.20
42227;DHT22;27892;52.378;13.122;2023-12-20T03:25:56;10.90;79.40
42227;DHT22;27892;52.378;13.122;2023-12-20T03:28:22;10.90;79.70
42227;DHT22;27892;52.378;13.122;2023-12-20T03:30:48;11.00;79.60
42227;DHT22;27892;52.378;13.122;2023-12-20T03:33:14;11.00;79.60
42227;DHT22;27892;52.378;13.122;2023-12-20T03:35:40;11.00;79.60
42227;DHT22;27892;52.378;13.122;2023-12-20T03:38:06;11.00;79.10
42227;DHT22;27892;52.378;13.122;2023-12-20T03:40:32;11.00;79.30
42227;DHT22;27892;52.378;13.122;2023-12-20T03:42:58;10.90;79.30
42227;DHT22;27892;52.378;13.122;2023-12-20T03:45:23;10.90;79.30
42227;DHT22;27892;52.378;13.122;2023-12-20T03:47:49;11.00;79.50
42227;DHT22;27892;52.378;13.122;2023-12-20T03:50:15;10.90;79.20
42227;DHT22;27892;52.378;13.122;2023-12-20T03:52:41;11.00;79.20
42227;DHT22;27892;52.378;13.122;2023-12-20T03:55:07;10.90;79.00
42227;DHT22;27892;52.378;13.122;2023-12-20T03:57:32;10.90;79.20
42227;DHT22;27892;52.378;13.122;2023-12-20T03:59:58;10.90;79.00
42227;DHT22;27892;52.378;13.122;2023-12-20T04:02:24;10.80;79.00
42227;DHT22;27892;52.378;13.122;2023-12-20T04:04:49;10.70;78.90
42227;DHT22;27892;52.378;13.122;2023-12-20T04:07:15;10.70;78.90
42227;DHT22;27892;52.378;13.122;2023-12-20T04:09:41;10.70;79.20
42227;DHT22;27892;52.378;13.122;2023-12-20T04:12:07;10.70;78.80
42227;DHT22;27892;52.378;13.122;2023-12-20T04:14:32;10.60;78.80
42227;DHT22;27892;52.378;13.122;2023-12-20T04:16:58;10.60;78.50
42227;DHT22;27892;52.378;13.122;2023-12-20T04:19:24;10.50;78.60
42227;DHT22;27892;52.378;13.122;2023-12-20T04:21:49;10.40;78.60
42227;DHT22;27892;52.378;13.122;2023-12-20T04:24:15;10.30;78.60
42227;DHT22;27892;52.378;13.122;2023-12-20T04:26:41;10.30;78.70
42227;DHT22;27892;52.378;13.122;2023-12-20T04:29:07;10.20;78.30
42227;DHT22;27892;52.378;13.122;2023-12-20T04:31:32;10.20;78.50
42227;DHT22;27892;52.378;13.122;2023-12-20T04:33:58;10.10;78.40
42227;DHT22;27892;52.378;13.122;2023-12-20T04:36:23;10.10;78.30
42227;DHT22;27892;52.378;13.122;2023-12-20T04:38:52;10.10;78.80
42227;DHT22;27892;52.378;13.122;2023-12-20T04:41:18;10.00;78.50
42227;DHT22;27892;52.378;13.122;2023-12-20T04:43:44;10.00;77.70
42227;DHT22;27892;52.378;13.122;2023-12-20T04:46:10;9.80;78.70
42227;DHT22;27892;52.378;13.122;2023-12-20T04:48:36;9.80;78.80
42227;DHT22;27892;52.378;13.122;2023-12-20T04:51:02;9.70;78.60
42227;DHT22;27892;52.378;13.122;2023-12-20T04:53:27;9.60;78.70
42227;DHT22;27892;52.378;13.122;2023-12-20T04:55:53;9.60;78.90
42227;DHT22;27892;52.378;13.122;2023-12-20T04:58:19;9.50;78.80
42227;DHT22;27892;52.378;13.122;2023-12-20T05:00:44;9.40;78.60
42227;DHT22;27892;52.378;13.122;2023-12-20T05:03:10;9.40;78.80
42227;DHT22;27892;52.378;13.122;2023-12-20T05:05:36;9.30;78.40
42227;DHT22;27892;52.378;13.122;2023-12-20T05:08:01;9.30;78.80
42227;DHT22;27892;52.378;13.122;2023-12-20T05:10:27;9.30;79.10
42227;DHT22;27892;52.378;13.122;2023-12-20T05:12:53;9.30;79.30
42227;DHT22;27892;52.378;13.122;2023-12-20T05:15:19;9.40;79.00
42227;DHT22;27892;52.378;13.122;2023-12-20T05:17:44;9.40;78.70
42227;DHT22;27892;52.378;13.122;2023-12-20T05:20:10;9.40;78.90
42227;DHT22;27892;52.378;13.122;2023-12-20T05:22:36;9.30;78.30
42227;DHT22;27892;52.378;13.122;2023-12-20T05:25:02;9.20;78.80
42227;DHT22;27892;52.378;13.122;2023-12-20T05:27:27;9.20;79.20
42227;DHT22;27892;52.378;13.122;2023-12-20T05:29:53;9.30;79.30
42227;DHT22;27892;52.378;13.122;2023-12-20T05:32:23;9.30;78.80
42227;DHT22;27892;52.378;13.122;2023-12-20T05:34:48;9.30;78.60
42227;DHT22;27892;52.378;13.122;2023-12-20T05:37:14;9.30;78.90
42227;DHT22;27892;52.378;13.122;2023-12-20T05:39:40;9.30;79.20
42227;DHT22;27892;52.378;13.122;2023-12-20T05:42:05;9.30;78.90
42227;DHT22;27892;52.378;13.122;2023-12-20T05:44:31;9.30;78.60
42227;DHT22;27892;52.378;13.122;2023-12-20T05:46:57;9.40;78.40
42227;DHT22;27892;52.378;13.122;2023-12-20T05:49:22;9.50;78.00
42227;DHT22;27892;52.378;13.122;2023-12-20T05:51:48;9.40;77.80
42227;DHT22;27892;52.378;13.122;2023-12-20T05:54:15;9.40;77.60
42227;DHT22;27892;52.378;13.122;2023-12-20T05:56:41;9.40;77.60
42227;DHT22;27892;52.378;13.122;2023-12-20T05:59:06;9.30;77.40
42227;DHT22;27892;52.378;13.122;2023-12-20T06:01:32;9.20;77.40
42227;DHT22;27892;52.378;13.122;2023-12-20T06:03:58;9.10;77.20
42227;DHT22;27892;52.378;13.122;2023-12-20T06:06:23;9.10;77.40
42227;DHT22;27892;52.378;13.122;2023-12-20T06:08:49;9.10;77.40
42227;DHT22;27892;52.378;13.122;2023-12-20T06:11:15;9.00;77.50
42227;DHT22;27892;52.378;13.122;2023-12-20T06:13:40;9.00;77.50
42227;DHT22;27892;52.378;13.122;2023-12-20T06:16:06;9.00;77.50
42227;DHT22;27892;52.378;13.122;2023-12-20T06:18:35;9.00;77.70
42227;DHT22;27892;52.378;13.122;2023-12-20T06:21:02;9.00;77.40
42227;DHT22;27892;52.378;13.122;2023-12-20T06:23:28;9.00;77.40
42227;DHT22;27892;52.378;13.122;2023-12-20T06:25:54;9.00;77.30
42227;DHT22;27892;52.378;13.122;2023-12-20T06:28:19;8.90;77.40
42227;DHT22;27892;52.378;13.122;2023-12-20T06:30:45;8.90;77.20
42227;DHT22;27892;52.378;13.122;2023-12-20T06:33:12;9.00;77.40
42227;DHT22;27892;52.378;13.122;2023-12-20T06:35:39;9.00;77.50
42227;DHT22;27892;52.378;13.122;2023-12-20T06:38:04;9.00;77.30
42227;DHT22;27892;52.378;13.122;2023-12-20T06:40:30;9.00;77.40
42227;DHT22;27892;52.378;13.122;2023-12-20T06:42:56;9.00;77.40
42227;DHT22;27892;52.378;13.122;2023-12-20T06:45:21;9.00;78.00
42227;DHT22;27892;52.378;13.122;2023-12-20T06:47:47;9.00;77.50
42227;DHT22;27892;52.378;13.122;2023-12-20T06:50:12;9.10;77.50
42227;DHT22;27892;52.378;13.122;2023-12-20T06:52:38;9.00;76.90
42227;DHT22;27892;52.378;13.122;2023-12-20T06:55:04;9.00;77.30
42227;DHT22;27892;52.378;13.122;2023-12-20T06:57:30;9.00;76.90
42227;DHT22;27892;52.378;13.122;2023-12-20T06:59:56;9.10;77.40
42227;DHT22;27892;52.378;13.122;2023-12-20T07:02:21;9.10;77.20
42227;DHT22;27892;52.378;13.122;2023-12-20T07:04:48;9.10;77.30
42227;DHT22;27892;52.378;13.122;2023-12-20T07:07:13;9.20;77.20
42227;DHT22;27892;52.378;13.122;2023-12-20T07:09:39;9.20;76.80
42227;DHT22;27892;52.378;13.122;2023-12-20T07:12:08;9.20;77.10
42227;DHT22;27892;52.378;13.122;2023-12-20T07:14:34;9.20;76.90
42227;DHT22;27892;52.378;13.122;2023-12-20T07:16:59;9.30;76.70
42227;DHT22;27892;52.378;13.122;2023-12-20T07:19:25;9.30;76.20
42227;DHT22;27892;52.378;13.122;2023-12-20T07:21:51;9.30;76.10
42227;DHT22;27892;52.378;13.122;2023-12-20T07:24:16;9.30;75.90
42227;DHT22;27892;52.378;13.122;2023-12-20T07:26:42;9.30;75.90
42227;DHT22;27892;52.378;13.122;2023-12-20T07:29:08;9.30;75.20
42227;DHT22;27892;52.378;13.122;2023-12-20T07:31:34;9.30;75.50
42227;DHT22;27892;52.378;13.122;2023-12-20T07:34:00;9.40;75.60
42227;DHT22;27892;52.378;13.122;2023-12-20T07:36:26;9.50;75.30
42227;DHT22;27892;52.378;13.122;2023-12-20T07:38:51;9.50;74.80
42227;DHT22;27892;52.378;13.122;2023-12-20T07:41:17;9.50;74.90
42227;DHT22;27892;52.378;13.122;2023-12-20T07:43:44;9.50;74.40
42227;DHT22;27892;52.378;13.122;2023-12-20T07:46:10;9.50;74.20
42227;DHT22;27892;52.378;13.122;2023-12-20T07:48:35;9.50;73.90
42227;DHT22;27892;52.378;13.122;2023-12-20T07:51:02;9.50;73.80
42227;DHT22;27892;52.378;13.122;2023-12-20T07:53:28;9.60;73.80
42227;DHT22;27892;52.378;13.122;2023-12-20T07:55:53;9.60;73.90
42227;DHT22;27892;52.378;13.122;2023-12-20T07:58:19;9.60;73.80
42227;DHT22;27892;52.378;13.122;2023-12-20T08:00:45;9.70;73.50
42227;DHT22;27892;52.378;13.122;2023-12-20T08:03:11;9.70;73.40
42227;DHT22;27892;52.378;13.122;2023-12-20T08:05:37;9.70;73.30
42227;DHT22;27892;52.378;13.122;2023-12-20T08:08:04;9.70;73.40
42227;DHT22;27892;52.378;13.122;2023-12-20T08:10:30;9.70;72.60
42227;DHT22;27892;52.378;13.122;2023-12-20T08:12:56;9.60;72.70
42227;DHT22;27892;52.378;13.122;2023-12-20T08:15:22;9.60;72.50
42227;DHT22;27892;52.378;13.122;2023-12-20T08:17:47;9.60;73.40
42227;DHT22;27892;52.378;13.122;2023-12-20T08:20:13;9.60;73.60
42227;DHT22;27892;52.378;13.122;2023-12-20T08:22:38;9.60;73.60
42227;DHT22;27892;52.378;13.122;2023-12-20T08:25:04;9.60;73.40
42227;DHT22;27892;52.378;13.122;2023-12-20T08:27:30;9.60;73.10
42227;DHT22;27892;52.378;13.122;2023-12-20T08:29:57;9.60;73.20
42227;DHT22;27892;52.378;13.122;2023-12-20T08:32:25;9.60;73.20
42227;DHT22;27892;52.378;13.122;2023-12-20T08:34:52;9.60;73.40
42227;DHT22;27892;52.378;13.122;2023-12-20T08:37:17;9.60;74.00
42227;DHT22;27892;52.378;13.122;2023-12-20T08:39:43;9.70;73.10
42227;DHT22;27892;52.378;13.122;2023-12-20T08:42:09;9.60;73.50
42227;DHT22;27892;52.378;13.122;2023-12-20T08:44:35;9.70;73.70
42227;DHT22;27892;52.378;13.122;2023-12-20T08:47:00;9.70;73.60
42227;DHT22;27892;52.378;13.122;2023-12-20T08:49:26;9.80;74.20
42227;DHT22;27892;52.378;13.122;2023-12-20T08:51:53;9.80;73.60
42227;DHT22;27892;52.378;13.122;2023-12-20T08:54:19;9.80;73.70
42227;DHT22;27892;52.378;13.122;2023-12-20T08:56:45;9.90;73.20
42227;DHT22;27892;52.378;13.122;2023-12-20T08:59:11;9.90;73.00
42227;DHT22;27892;52.378;13.122;2023-12-20T09:01:37;9.90;73.00
42227;DHT22;27892;52.378;13.122;2023-12-20T09:04:03;10.10;73.00
42227;DHT22;27892;52.378;13.122;2023-12-20T09:06:28;10.30;71.60
42227;DHT22;27892;52.378;13.122;2023-12-20T09:08:54;10.40;71.70
42227;DHT22;27892;52.378;13.122;2023-12-20T09:11:20;10.60;71.70
42227;DHT22;27892;52.378;13.122;2023-12-20T09:13:45;10.70;71.40
42227;DHT22;27892;52.378;13.122;2023-12-20T09:16:11;10.70;70.80
42227;DHT22;27892;52.378;13.122;2023-12-20T09:18:38;10.70;69.70
42227;DHT22;27892;52.378;13.122;2023-12-20T09:21:04;10.70;69.70
42227;DHT22;27892;52.378;13.122;2023-12-20T09:23:30;10.60;69.30
42227;DHT22;27892;52.378;13.122;2023-12-20T09:25:55;10.50;68.90
42227;DHT22;27892;52.378;13.122;2023-12-20T09:28:21;10.40;68.40
42227;DHT22;27892;52.378;13.122;2023-12-20T09:30:46;10.50;69.90
42227;DHT22;27892;52.378;13.122;2023-12-20T09:33:13;10.50;69.70
42227;DHT22;27892;52.378;13.122;2023-12-20T09:35:39;10.60;68.90
42227;DHT22;27892;52.378;13.122;2023-12-20T09:38:05;10.70;69.40
42227;DHT22;27892;52.378;13.122;2023-12-20T09:40:32;10.70;68.80
42227;DHT22;27892;52.378;13.122;2023-12-20T09:43:10;10.60;69.10
42227;DHT22;27892;52.378;13.122;2023-12-20T09:45:36;10.70;68.90
42227;DHT22;27892;52.378;13.122;2023-12-20T09:48:03;10.70;68.90
42227;DHT22;27892;52.378;13.122;2023-12-20T09:50:30;10.70;67.90
42227;DHT22;27892;52.378;13.122;2023-12-20T09:52:58;10.70;67.90
42227;DHT22;27892;52.378;13.122;2023-12-20T09:55:27;10.60;67.50
42227;DHT22;27892;52.378;13.122;2023-12-20T09:57:54;10.60;67.60
42227;DHT22;27892;52.378;13.122;2023-12-20T10:00:20;10.60;67.60
42227;DHT22;27892;52.378;13.122;2023-12-20T10:02:52;10.70;68.00
42227;DHT22;27892;52.378;13.122;2023-12-20T10:05:32;10.80;67.60
42227;DHT22;27892;52.378;13.122;2023-12-20T10:07:59;10.90;67.30
42227;DHT22;27892;52.378;13.122;2023-12-20T10:10:25;11.10;67.00
42227;DHT22;27892;52.378;13.122;2023-12-20T10:13:05;11.10;66.70
42227;DHT22;27892;52.378;13.122;2023-12-20T10:15:32;11.10;66.30
42227;DHT22;27892;52.378;13.122;2023-12-20T10:17:58;11.00;66.10
42227;DHT22;27892;52.378;13.122;2023-12-20T10:20:25;11.10;66.00
42227;DHT22;27892;52.378;13.122;2023-12-20T10:22:52;11.00;64.50
42227;DHT22;27892;52.378;13.122;2023-12-20T10:25:22;11.00;65.30
42227;DHT22;27892;52.378;13.122;2023-12-20T10:27:50;11.00;65.40
42227;DHT22;27892;52.378;13.122;2023-12-20T10:30:16;11.00;65.80
42227;DHT22;27892;52.378;13.122;2023-12-20T10:32:42;11.00;65.10
42227;DHT22;27892;52.378;13.122;2023-12-20T10:35:08;11.10;65.10
42227;DHT22;27892;52.378;13.122;2023-12-20T10:37:37;11.10;64.70
42227;DHT22;27892;52.378;13.122;2023-12-20T10:40:04;11.10;64.30
42227;DHT22;27892;52.378;13.122;2023-12-20T10:42:32;11.10;64.10
42227;DHT22;27892;52.378;13.122;2023-12-20T10:44:59;11.10;64.10
42227;DHT22;27892;52.378;13.122;2023-12-20T10:47:25;11.10;63.50
42227;DHT22;27892;52.378;13.122;2023-12-20T10:49:52;11.10;63.40
42227;DHT22;27892;52.378;13.122;2023-12-20T10:52:18;11.00;63.80
42227;DHT22;27892;52.378;13.122;2023-12-20T10:54:45;11.10;63.80
42227;DHT22;27892;52.378;13.122;2023-12-20T10:57:11;11.10;63.80
42227;DHT22;27892;52.378;13.122;2023-12-20T10:59:38;11.10;64.30
42227;DHT22;27892;52.378;13.122;2023-12-20T11:02:05;11.00;63.60
42227;DHT22;27892;52.378;13.122;2023-12-20T11:07:23;11.10;64.00
42227;DHT22;27892;52.378;13.122;2023-12-20T11:12:46;11.10;63.20
42227;DHT22;27892;52.378;13.122;2023-12-20T11:15:13;11.00;63.50
42227;DHT22;27892;52.378;13.122;2023-12-20T11:17:40;11.00;63.30
42227;DHT22;27892;52.378;13.122;2023-12-20T11:20:07;10.90;62.60
42227;DHT22;27892;52.378;13.122;2023-12-20T11:22:35;10.90;63.00
42227;DHT22;27892;52.378;13.122;2023-12-20T11:25:07;10.90;62.70
42227;DHT22;27892;52.378;13.122;2023-12-20T11:27:39;10.90;63.30
42227;DHT22;27892;52.378;13.122;2023-12-20T11:30:06;11.00;63.20
42227;DHT22;27892;52.378;13.122;2023-12-20T11:32:34;11.00;63.00
42227;DHT22;27892;52.378;13.122;2023-12-20T11:37:36;11.00;63.00
42227;DHT22;27892;52.378;13.122;2023-12-20T11:40:06;11.00;62.80
42227;DHT22;27892;52.378;13.122;2023-12-20T11:42:33;11.00;62.00
42227;DHT22;27892;52.378;13.122;2023-12-20T11:45:01;10.90;62.10
42227;DHT22;27892;52.378;13.122;2023-12-20T11:47:30;10.90;63.20
42227;DHT22;27892;52.378;13.122;2023-12-20T11:49:56;11.00;63.40
42227;DHT22;27892;52.378;13.122;2023-12-20T11:52:22;11.10;63.30
42227;DHT22;27892;52.378;13.122;2023-12-20T11:54:48;11.20;62.80
42227;DHT22;27892;52.378;13.122;2023-12-20T11:57:14;11.10;62.30
42227;DHT22;27892;52.378;13.122;2023-12-20T11:59:39;11.10;62.80
42227;DHT22;27892;52.378;13.122;2023-12-20T12:02:06;11.10;62.30
42227;DHT22;27892;52.378;13.122;2023-12-20T12:04:32;11.00;62.10
42227;DHT22;27892;52.378;13.122;2023-12-20T12:06:57;10.90;62.50
42227;DHT22;27892;52.378;13.122;2023-12-20T12:09:23;11.00;62.70
42227;DHT22;27892;52.378;13.122;2023-12-20T12:11:49;10.90;62.40
42227;DHT22;27892;52.378;13.122;2023-12-20T12:14:14;11.00;62.30
42227;DHT22;27892;52.378;13.122;2023-12-20T12:16:42;11.00;62.30
42227;DHT22;27892;52.378;13.122;2023-12-20T12:19:23;11.00;62.20
42227;DHT22;27892;52.378;13.122;2023-12-20T12:22:07;11.10;62.60
42227;DHT22;27892;52.378;13.122;2023-12-20T12:24:44;11.10;62.80
42227;DHT22;27892;52.378;13.122;2023-12-20T12:27:12;11.00;62.80
42227;DHT22;27892;52.378;13.122;2023-12-20T12:29:38;11.10;62.50
42227;DHT22;27892;52.378;13.122;2023-12-20T12:32:08;11.10;62.60
42227;DHT22;27892;52.378;13.122;2023-12-20T12:34:35;11.00;62.50
42227;DHT22;27892;52.378;13.122;2023-12-20T12:37:02;11.00;63.30
42227;DHT22;27892;52.378;13.122;2023-12-20T12:39:27;11.00;63.40
42227;DHT22;27892;52.378;13.122;2023-12-20T12:41:55;11.00;63.20
42227;DHT22;27892;52.378;13.122;2023-12-20T12:44:21;10.90;63.70
42227;DHT22;27892;52.378;13.122;2023-12-20T12:46:49;10.70;64.30
42227;DHT22;27892;52.378;13.122;2023-12-20T12:49:20;10.70;64.70
42227;DHT22;27892;52.378;13.122;2023-12-20T12:51:47;10.60;64.90
42227;DHT22;27892;52.378;13.122;2023-12-20T12:54:12;10.60;65.30
42227;DHT22;27892;52.378;13.122;2023-12-20T12:56:39;10.60;65.30
42227;DHT22;27892;52.378;13.122;2023-12-20T12:59:05;10.60;65.70
42227;DHT22;27892;52.378;13.122;2023-12-20T13:01:31;10.50;65.60
42227;DHT22;27892;52.378;13.122;2023-12-20T13:03:57;10.40;66.50
42227;DHT22;27892;52.378;13.122;2023-12-20T13:06:23;10.40;67.10
42227;DHT22;27892;52.378;13.122;2023-12-20T13:08:49;10.40;67.40
42227;DHT22;27892;52.378;13.122;2023-12-20T13:11:15;10.30;67.40
42227;DHT22;27892;52.378;13.122;2023-12-20T13:13:40;10.30;67.90
42227;DHT22;27892;52.378;13.122;2023-12-20T13:16:06;10.30;68.80
42227;DHT22;27892;52.378;13.122;2023-12-20T13:18:32;10.30;68.80
42227;DHT22;27892;52.378;13.122;2023-12-20T13:20:57;10.30;68.70
42227;DHT22;27892;52.378;13.122;2023-12-20T13:23:23;10.30;69.20
42227;DHT22;27892;52.378;13.122;2023-12-20T13:25:49;10.20;69.50
42227;DHT22;27892;52.378;13.122;2023-12-20T13:28:15;10.20;70.20
42227;DHT22;27892;52.378;13.122;2023-12-20T13:30:40;10.10;70.50
42227;DHT22;27892;52.378;13.122;2023-12-20T13:33:06;9.90;72.50
42227;DHT22;27892;52.378;13.122;2023-12-20T13:35:33;9.50;70.90
42227;DHT22;27892;52.378;13.122;2023-12-20T13:38:00;9.10;72.30
42227;DHT22;27892;52.378;13.122;2023-12-20T13:40:26;8.90;72.20
42227;DHT22;27892;52.378;13.122;2023-12-20T13:42:51;8.70;72.40
42227;DHT22;27892;52.378;13.122;2023-12-20T13:45:17;8.70;74.50
42227;DHT22;27892;52.378;13.122;2023-12-20T13:47:43;8.70;74.30
42227;DHT22;27892;52.378;13.122;2023-12-20T13:50:08;8.70;74.10
42227;DHT22;27892;52.378;13.122;2023-12-20T13:52:35;8.60;74.10
42227;DHT22;27892;52.378;13.122;2023-12-20T13:55:01;8.60;74.70
42227;DHT22;27892;52.378;13.122;2023-12-20T13:57:27;8.60;74.80
42227;DHT22;27892;52.378;13.122;2023-12-20T13:59:55;8.70;74.60
42227;DHT22;27892;52.378;13.122;2023-12-20T14:02:23;8.70;74.90
42227;DHT22;27892;52.378;13.122;2023-12-20T14:04:48;8.60;75.00
42227;DHT22;27892;52.378;13.122;2023-12-20T14:07:14;8.50;74.60
42227;DHT22;27892;52.378;13.122;2023-12-20T14:09:40;8.50;75.20
42227;DHT22;27892;52.378;13.122;2023-12-20T14:12:11;8.50;75.50
42227;DHT22;27892;52.378;13.122;2023-12-20T14:14:36;8.60;75.30
42227;DHT22;27892;52.378;13.122;2023-12-20T14:17:02;8.60;75.50
42227;DHT22;27892;52.378;13.122;2023-12-20T14:19:28;8.60;75.50
42227;DHT22;27892;52.378;13.122;2023-12-20T14:21:53;8.60;75.30
42227;DHT22;27892;52.378;13.122;2023-12-20T14:24:19;8.60;76.30
42227;DHT22;27892;52.378;13.122;2023-12-20T14:26:44;8.50;76.00
42227;DHT22;27892;52.378;13.122;2023-12-20T14:29:10;8.60;76.40
42227;DHT22;27892;52.378;13.122;2023-12-20T14:31:36;8.70;76.20
42227;DHT22;27892;52.378;13.122;2023-12-20T14:34:04;8.70;76.30
42227;DHT22;27892;52.378;13.122;2023-12-20T14:36:30;8.60;76.30
42227;DHT22;27892;52.378;13.122;2023-12-20T14:38:58;8.70;76.50
42227;DHT22;27892;52.378;13.122;2023-12-20T14:41:24;8.60;76.50
42227;DHT22;27892;52.378;13.122;2023-12-20T14:43:51;8.60;76.80
42227;DHT22;27892;52.378;13.122;2023-12-20T14:46:19;8.70;77.20
42227;DHT22;27892;52.378;13.122;2023-12-20T14:48:45;8.90;77.30
42227;DHT22;27892;52.378;13.122;2023-12-20T14:51:11;9.00;76.80
42227;DHT22;27892;52.378;13.122;2023-12-20T14:53:38;9.00;76.40
42227;DHT22;27892;52.378;13.122;2023-12-20T14:56:05;9.00;75.80
42227;DHT22;27892;52.378;13.122;2023-12-20T14:58:31;8.90;75.30
42227;DHT22;27892;52.378;13.122;2023-12-20T15:00:57;8.90;75.40
42227;DHT22;27892;52.378;13.122;2023-12-20T15:03:23;8.80;75.30
42227;DHT22;27892;52.378;13.122;2023-12-20T15:05:49;8.70;74.90
42227;DHT22;27892;52.378;13.122;2023-12-20T15:08:15;8.70;75.40
42227;DHT22;27892;52.378;13.122;2023-12-20T15:10:41;8.60;75.40
42227;DHT22;27892;52.378;13.122;2023-12-20T15:13:06;8.60;75.10
42227;DHT22;27892;52.378;13.122;2023-12-20T15:15:32;8.60;75.00
42227;DHT22;27892;52.378;13.122;2023-12-20T15:17:59;8.50;75.40
42227;DHT22;27892;52.378;13.122;2023-12-20T15:20:25;8.50;75.40
42227;DHT22;27892;52.378;13.122;2023-12-20T15:22:51;8.50;75.40
42227;DHT22;27892;52.378;13.122;2023-12-20T15:25:18;8.50;75.50